createdAt,value
2018-02-19T00:00:33.153Z,1017.77
2018-02-19T00:01:33.165Z,1017.76
2018-02-19T00:02:33.163Z,1017.75
2018-02-19T00:03:54.165Z,1017.74
2018-02-19T00:04:33.156Z,1017.73
2018-02-19T00:05:33.136Z,1017.75
2018-02-19T00:06:33.151Z,1017.74
2018-02-19T00:07:33.132Z,1017.73
2018-02-19T00:08:33.134Z,1017.73
2018-02-19T00:09:54.137Z,1017.74
2018-02-19T00:10:33.133Z,1017.75
2018-02-19T00:11:33.127Z,1017.74
2018-02-19T00:12:33.137Z,1017.71
2018-02-19T00:13:33.904Z,1017.75
2018-02-19T00:14:33.145Z,1017.71
2018-02-19T00:15:54.126Z,1017.70
2018-02-19T00:16:33.399Z,1017.68
2018-02-19T00:17:33.111Z,1017.67
2018-02-19T00:18:33.108Z,1017.69
2018-02-19T00:19:33.130Z,1017.70
2018-02-19T00:20:33.114Z,1017.67
2018-02-19T00:21:54.105Z,1017.66
2018-02-19T00:22:33.095Z,1017.64
2018-02-19T00:23:33.405Z,1017.62
2018-02-19T00:24:33.124Z,1017.60
2018-02-19T00:25:33.097Z,1017.64
2018-02-19T00:26:33.089Z,1017.61
2018-02-19T00:27:54.094Z,1017.60
2018-02-19T00:28:33.959Z,1017.60
2018-02-19T00:29:33.088Z,1017.62
2018-02-19T00:30:33.088Z,1017.59
2018-02-19T00:31:33.087Z,1017.56
2018-02-19T00:32:34.490Z,1017.58
2018-02-19T00:33:54.087Z,1017.51
2018-02-19T00:34:33.092Z,1017.55
2018-02-19T00:35:33.182Z,1017.52
2018-02-19T00:36:33.071Z,1017.51
2018-02-19T00:37:33.083Z,1017.48
2018-02-19T00:38:33.064Z,1017.49
2018-02-19T00:39:54.063Z,1017.50
2018-02-19T00:40:33.065Z,1017.50
2018-02-19T00:41:33.063Z,1017.49
2018-02-19T00:42:33.055Z,1017.46
2018-02-19T00:43:33.060Z,1017.47
2018-02-19T00:44:33.081Z,1017.48
2018-02-19T00:45:54.068Z,1017.43
2018-02-19T00:46:33.057Z,1017.43
2018-02-19T00:47:33.043Z,1017.43
2018-02-19T00:48:33.055Z,1017.39
2018-02-19T00:49:33.055Z,1017.38
2018-02-19T00:50:33.962Z,1017.37
2018-02-19T00:51:54.054Z,1017.38
2018-02-19T00:52:33.882Z,1017.34
2018-02-19T00:53:33.042Z,1017.38
2018-02-19T00:54:33.500Z,1017.33
2018-02-19T00:55:33.039Z,1017.33
2018-02-19T00:56:33.046Z,1017.33
2018-02-19T00:57:54.037Z,1017.28
2018-02-19T00:58:33.034Z,1017.32
2018-02-19T00:59:33.018Z,1017.32
2018-02-19T01:00:33.030Z,1017.32
2018-02-19T01:01:33.039Z,1017.32
2018-02-19T01:02:33.014Z,1017.29
2018-02-19T01:03:54.032Z,1017.25
2018-02-19T01:04:33.009Z,1017.26
2018-02-19T01:05:33.812Z,1017.31
2018-02-19T01:06:33.009Z,1017.25
2018-02-19T01:07:34.866Z,1017.24
2018-02-19T01:08:34.703Z,1017.23
2018-02-19T01:09:54.144Z,1017.23
2018-02-19T01:10:32.993Z,1017.24
2018-02-19T01:11:32.987Z,1017.18
2018-02-19T01:12:32.985Z,1017.19
2018-02-19T01:13:32.999Z,1017.20
2018-02-19T01:14:32.984Z,1017.18
2018-02-19T01:15:53.984Z,1017.13
2018-02-19T01:16:34.077Z,1017.17
2018-02-19T01:17:32.982Z,1017.15
2018-02-19T01:18:32.985Z,1017.15
2018-02-19T01:19:33.083Z,1017.12
2018-02-19T01:20:32.969Z,1017.15
2018-02-19T01:21:53.976Z,1017.11
2018-02-19T01:22:32.971Z,1017.15
2018-02-19T01:23:32.964Z,1017.14
2018-02-19T01:24:32.970Z,1017.14
2018-02-19T01:25:32.960Z,1017.07
2018-02-19T01:26:34.484Z,1017.12
2018-02-19T01:27:53.965Z,1017.12
2018-02-19T01:28:33.716Z,1017.12
2018-02-19T01:29:33.762Z,1017.10
2018-02-19T01:30:32.947Z,1017.06
2018-02-19T01:31:32.972Z,1017.07
2018-02-19T01:32:33.004Z,1017.07
2018-02-19T01:33:53.945Z,1017.02
2018-02-19T01:34:32.952Z,1017.01
2018-02-19T01:35:32.938Z,1017.02
2018-02-19T01:36:33.021Z,1016.99
2018-02-19T01:37:33.023Z,1017.01
2018-02-19T01:38:32.934Z,1016.98
2018-02-19T01:39:53.941Z,1017.01
2018-02-19T01:40:33.320Z,1016.99
2018-02-19T01:41:32.954Z,1016.98
2018-02-19T01:42:32.921Z,1016.94
2018-02-19T01:43:32.912Z,1016.97
2018-02-19T01:44:32.924Z,1016.92
2018-02-19T01:45:53.918Z,1016.91
2018-02-19T01:46:32.909Z,1016.88
2018-02-19T01:47:32.922Z,1016.80
2018-02-19T01:48:32.900Z,1016.83
2018-02-19T01:49:32.900Z,1016.81
2018-02-19T01:50:32.912Z,1016.77
2018-02-19T01:51:54.414Z,1016.79
2018-02-19T01:52:32.898Z,1016.77
2018-02-19T01:53:32.893Z,1016.79
2018-02-19T01:54:32.900Z,1016.82
2018-02-19T01:55:32.889Z,1016.77
2018-02-19T01:56:32.887Z,1016.76
2018-02-19T01:57:53.894Z,1016.71
2018-02-19T01:58:32.878Z,1016.66
2018-02-19T01:59:32.887Z,1016.67
2018-02-19T02:00:32.868Z,1016.67
2018-02-19T02:01:34.006Z,1016.69
2018-02-19T02:02:32.887Z,1016.68
2018-02-19T02:03:53.924Z,1016.65
2018-02-19T02:04:32.863Z,1016.70
2018-02-19T02:05:32.862Z,1016.69
2018-02-19T02:06:32.856Z,1016.69
2018-02-19T02:07:33.324Z,1016.73
2018-02-19T02:08:32.856Z,1016.75
2018-02-19T02:09:53.852Z,1016.73
2018-02-19T02:10:32.843Z,1016.73
2018-02-19T02:11:32.845Z,1016.75
2018-02-19T02:12:32.850Z,1016.72
2018-02-19T02:13:32.856Z,1016.69
2018-02-19T02:14:33.473Z,1016.68
2018-02-19T02:15:53.846Z,1016.67
2018-02-19T02:16:32.936Z,1016.63
2018-02-19T02:17:32.838Z,1016.66
2018-02-19T02:18:32.854Z,1016.62
2018-02-19T02:19:32.981Z,1016.63
2018-02-19T02:20:33.041Z,1016.60
2018-02-19T02:21:53.839Z,1016.63
2018-02-19T02:22:32.840Z,1016.59
2018-02-19T02:23:32.824Z,1016.59
2018-02-19T02:24:32.840Z,1016.56
2018-02-19T02:25:32.812Z,1016.58
2018-02-19T02:26:32.824Z,1016.60
2018-02-19T02:27:53.811Z,1016.60
2018-02-19T02:28:32.834Z,1016.57
2018-02-19T02:29:32.807Z,1016.56
2018-02-19T02:30:32.808Z,1016.55
2018-02-19T02:31:32.801Z,1016.54
2018-02-19T02:32:32.810Z,1016.54
2018-02-19T02:33:53.803Z,1016.53
2018-02-19T02:34:32.823Z,1016.51
2018-02-19T02:35:32.786Z,1016.51
2018-02-19T02:36:32.791Z,1016.50
2018-02-19T02:37:32.876Z,1016.50
2018-02-19T02:38:32.823Z,1016.54
2018-02-19T02:39:53.784Z,1016.54
2018-02-19T02:40:32.781Z,1016.52
2018-02-19T02:41:32.782Z,1016.51
2018-02-19T02:42:32.778Z,1016.51
2018-02-19T02:43:32.775Z,1016.50
2018-02-19T02:44:32.779Z,1016.59
2018-02-19T02:45:53.785Z,1016.54
2018-02-19T02:46:32.772Z,1016.58
2018-02-19T02:47:32.764Z,1016.53
2018-02-19T02:48:32.774Z,1016.52
2018-02-19T02:49:32.759Z,1016.51
2018-02-19T02:50:32.773Z,1016.55
2018-02-19T02:51:53.770Z,1016.52
2018-02-19T02:52:32.743Z,1016.50
2018-02-19T02:53:32.747Z,1016.49
2018-02-19T02:54:32.760Z,1016.51
2018-02-19T02:55:32.748Z,1016.48
2018-02-19T02:56:32.757Z,1016.53
2018-02-19T02:57:53.749Z,1016.51
2018-02-19T02:58:32.739Z,1016.52
2018-02-19T02:59:32.747Z,1016.50
2018-02-19T03:00:32.729Z,1016.51
2018-02-19T03:01:32.739Z,1016.51
2018-02-19T03:02:32.724Z,1016.48
2018-02-19T03:03:53.748Z,1016.49
2018-02-19T03:04:32.732Z,1016.49
2018-02-19T03:05:32.750Z,1016.50
2018-02-19T03:06:32.744Z,1016.47
2018-02-19T03:07:32.778Z,1016.42
2018-02-19T03:08:32.720Z,1016.41
2018-02-19T03:09:53.734Z,1016.47
2018-02-19T03:10:32.714Z,1016.44
2018-02-19T03:11:32.697Z,1016.36
2018-02-19T03:12:32.708Z,1016.37
2018-02-19T03:13:32.705Z,1016.36
2018-02-19T03:14:32.707Z,1016.36
2018-02-19T03:15:53.710Z,1016.38
2018-02-19T03:16:32.690Z,1016.34
2018-02-19T03:17:32.697Z,1016.30
2018-02-19T03:18:32.697Z,1016.34
2018-02-19T03:19:32.684Z,1016.33
2018-02-19T03:20:32.683Z,1016.35
2018-02-19T03:21:53.693Z,1016.35
2018-02-19T03:22:32.690Z,1016.34
2018-02-19T03:23:32.685Z,1016.36
2018-02-19T03:24:32.729Z,1016.35
2018-02-19T03:25:32.688Z,1016.34
2018-02-19T03:26:32.676Z,1016.33
2018-02-19T03:27:53.673Z,1016.31
2018-02-19T03:28:32.666Z,1016.28
2018-02-19T03:29:32.660Z,1016.24
2018-02-19T03:30:32.682Z,1016.22
2018-02-19T03:31:32.676Z,1016.26
2018-02-19T03:32:32.665Z,1016.22
2018-02-19T03:33:53.673Z,1016.25
2018-02-19T03:34:32.646Z,1016.27
2018-02-19T03:35:32.668Z,1016.25
2018-02-19T03:36:32.641Z,1016.25
2018-02-19T03:37:32.685Z,1016.25
2018-02-19T03:38:32.759Z,1016.28
2018-02-19T03:39:53.645Z,1016.21
2018-02-19T03:40:32.631Z,1016.23
2018-02-19T03:41:32.628Z,1016.17
2018-02-19T03:42:32.632Z,1016.19
2018-02-19T03:43:32.632Z,1016.16
2018-02-19T03:44:32.631Z,1016.18
2018-02-19T03:45:53.648Z,1016.14
2018-02-19T03:46:32.623Z,1016.15
2018-02-19T03:47:32.625Z,1016.16
2018-02-19T03:48:32.621Z,1016.16
2018-02-19T03:49:32.620Z,1016.12
2018-02-19T03:50:32.670Z,1016.10
2018-02-19T03:51:53.632Z,1016.06
2018-02-19T03:52:32.647Z,1016.08
2018-02-19T03:53:32.617Z,1016.03
2018-02-19T03:54:32.610Z,1016.05
2018-02-19T03:55:32.598Z,1016.06
2018-02-19T03:56:32.597Z,1016.03
2018-02-19T03:57:53.601Z,1015.99
2018-02-19T03:58:32.598Z,1016.02
2018-02-19T03:59:32.593Z,1016.02
2018-02-19T04:00:32.590Z,1015.98
2018-02-19T04:01:32.592Z,1015.96
2018-02-19T04:02:32.578Z,1015.93
2018-02-19T04:03:53.593Z,1015.89
2018-02-19T04:04:32.594Z,1015.87
2018-02-19T04:05:32.590Z,1015.89
2018-02-19T04:06:32.591Z,1015.90
2018-02-19T04:07:32.574Z,1015.87
2018-02-19T04:08:32.610Z,1015.89
2018-02-19T04:09:53.590Z,1015.89
2018-02-19T04:10:32.564Z,1015.86
2018-02-19T04:11:32.568Z,1015.85
2018-02-19T04:12:32.582Z,1015.81
2018-02-19T04:13:32.568Z,1015.82
2018-02-19T04:14:32.559Z,1015.76
2018-02-19T04:15:53.573Z,1015.75
2018-02-19T04:16:32.558Z,1015.73
2018-02-19T04:17:32.637Z,1015.72
2018-02-19T04:18:32.540Z,1015.79
2018-02-19T04:19:32.545Z,1015.76
2018-02-19T04:20:32.544Z,1015.70
2018-02-19T04:21:53.550Z,1015.67
2018-02-19T04:22:32.556Z,1015.64
2018-02-19T04:23:32.533Z,1015.62
2018-02-19T04:24:32.535Z,1015.65
2018-02-19T04:25:32.529Z,1015.60
2018-02-19T04:26:32.522Z,1015.63
2018-02-19T04:27:53.524Z,1015.60
2018-02-19T04:28:32.517Z,1015.59
2018-02-19T04:29:32.529Z,1015.59
2018-02-19T04:30:32.509Z,1015.62
2018-02-19T04:31:32.509Z,1015.57
2018-02-19T04:32:32.520Z,1015.55
2018-02-19T04:33:53.511Z,1015.52
2018-02-19T04:34:32.537Z,1015.54
2018-02-19T04:35:32.495Z,1015.55
2018-02-19T04:36:32.496Z,1015.55
2018-02-19T04:37:32.573Z,1015.54
2018-02-19T04:38:32.494Z,1015.55
2018-02-19T04:39:53.625Z,1015.56
2018-02-19T04:40:32.477Z,1015.56
2018-02-19T04:41:32.474Z,1015.56
2018-02-19T04:42:32.490Z,1015.55
2018-02-19T04:43:32.477Z,1015.51
2018-02-19T04:44:32.474Z,1015.51
2018-02-19T04:45:53.475Z,1015.51
2018-02-19T04:46:32.460Z,1015.54
2018-02-19T04:47:32.466Z,1015.52
2018-02-19T04:48:32.476Z,1015.54
2018-02-19T04:49:32.470Z,1015.49
2018-02-19T04:50:32.484Z,1015.51
2018-02-19T04:51:53.492Z,1015.53
2018-02-19T04:52:32.451Z,1015.56
2018-02-19T04:53:32.463Z,1015.55
2018-02-19T04:54:32.441Z,1015.55
2018-02-19T04:55:32.437Z,1015.56
2018-02-19T04:56:32.447Z,1015.52
2018-02-19T04:57:53.462Z,1015.54
2018-02-19T04:58:32.448Z,1015.51
2018-02-19T04:59:32.439Z,1015.49
2018-02-19T05:00:32.464Z,1015.48
2018-02-19T05:01:32.443Z,1015.49
2018-02-19T05:02:32.454Z,1015.50
2018-02-19T05:03:53.434Z,1015.54
2018-02-19T05:04:32.427Z,1015.58
2018-02-19T05:05:32.517Z,1015.60
2018-02-19T05:06:32.419Z,1015.65
2018-02-19T05:07:32.410Z,1015.62
2018-02-19T05:08:32.413Z,1015.62
2018-02-19T05:09:53.604Z,1015.61
2018-02-19T05:10:32.418Z,1015.60
2018-02-19T05:11:32.395Z,1015.58
2018-02-19T05:12:32.403Z,1015.57
2018-02-19T05:13:32.396Z,1015.59
2018-02-19T05:14:32.393Z,1015.62
2018-02-19T05:15:53.428Z,1015.61
2018-02-19T05:16:32.388Z,1015.60
2018-02-19T05:17:32.394Z,1015.61
2018-02-19T05:18:32.495Z,1015.61
2018-02-19T05:19:32.397Z,1015.60
2018-02-19T05:20:32.389Z,1015.58
2018-02-19T05:21:53.392Z,1015.61
2018-02-19T05:22:32.381Z,1015.62
2018-02-19T05:23:32.365Z,1015.61
2018-02-19T05:24:32.368Z,1015.61
2018-02-19T05:25:32.365Z,1015.64
2018-02-19T05:26:32.383Z,1015.64
2018-02-19T05:27:53.383Z,1015.65
2018-02-19T05:28:32.350Z,1015.67
2018-02-19T05:29:32.386Z,1015.64
2018-02-19T05:30:32.352Z,1015.63
2018-02-19T05:31:32.349Z,1015.60
2018-02-19T05:32:32.342Z,1015.69
2018-02-19T05:33:53.370Z,1015.67
2018-02-19T05:34:32.463Z,1015.66
2018-02-19T05:35:32.381Z,1015.64
2018-02-19T05:36:32.362Z,1015.61
2018-02-19T05:37:32.357Z,1015.65
2018-02-19T05:38:32.332Z,1015.62
2018-02-19T05:39:53.342Z,1015.61
2018-02-19T05:40:32.437Z,1015.56
2018-02-19T05:41:32.334Z,1015.57
2018-02-19T05:42:32.314Z,1015.55
2018-02-19T05:43:32.309Z,1015.55
2018-02-19T05:44:32.312Z,1015.52
2018-02-19T05:45:53.317Z,1015.57
2018-02-19T05:46:32.328Z,1015.55
2018-02-19T05:47:32.329Z,1015.57
2018-02-19T05:48:32.340Z,1015.62
2018-02-19T05:49:32.341Z,1015.59
2018-02-19T05:50:32.308Z,1015.65
2018-02-19T05:51:53.319Z,1015.64
2018-02-19T05:52:32.321Z,1015.62
2018-02-19T05:53:32.304Z,1015.62
2018-02-19T05:54:32.297Z,1015.62
2018-02-19T05:55:32.292Z,1015.60
2018-02-19T05:56:32.287Z,1015.57
2018-02-19T05:57:53.292Z,1015.58
2018-02-19T05:58:32.289Z,1015.58
2018-02-19T05:59:32.321Z,1015.61
2018-02-19T06:00:32.299Z,1015.59
2018-02-19T06:01:32.305Z,1015.61
2018-02-19T06:02:32.287Z,1015.58
2018-02-19T06:03:53.275Z,1015.56
2018-02-19T06:04:32.285Z,1015.56
2018-02-19T06:05:33.012Z,1015.52
2018-02-19T06:06:32.283Z,1015.53
2018-02-19T06:07:32.254Z,1015.49
2018-02-19T06:08:32.291Z,1015.49
2018-02-19T06:09:54.013Z,1015.42
2018-02-19T06:10:32.237Z,1015.44
2018-02-19T06:11:32.242Z,1015.47
2018-02-19T06:12:32.234Z,1015.48
2018-02-19T06:13:32.245Z,1015.48
2018-02-19T06:14:32.236Z,1015.51
2018-02-19T06:15:53.236Z,1015.54
2018-02-19T06:16:32.229Z,1015.50
2018-02-19T06:17:32.235Z,1015.52
2018-02-19T06:18:32.253Z,1015.49
2018-02-19T06:19:32.218Z,1015.51
2018-02-19T06:20:32.229Z,1015.50
2018-02-19T06:21:53.222Z,1015.53
2018-02-19T06:22:32.212Z,1015.52
2018-02-19T06:23:32.221Z,1015.52
2018-02-19T06:24:32.231Z,1015.56
2018-02-19T06:25:32.205Z,1015.53
2018-02-19T06:26:32.229Z,1015.53
2018-02-19T06:27:53.204Z,1015.55
2018-02-19T06:28:32.216Z,1015.58
2018-02-19T06:29:32.196Z,1015.56
2018-02-19T06:30:32.249Z,1015.61
2018-02-19T06:31:32.197Z,1015.62
2018-02-19T06:32:32.192Z,1015.62
2018-02-19T06:33:53.207Z,1015.64
2018-02-19T06:34:32.257Z,1015.61
2018-02-19T06:35:32.188Z,1015.62
2018-02-19T06:36:32.210Z,1015.63
2018-02-19T06:37:32.181Z,1015.64
2018-02-19T06:38:32.188Z,1015.64
2018-02-19T06:39:53.188Z,1015.63
2018-02-19T06:40:32.169Z,1015.59
2018-02-19T06:41:32.289Z,1015.62
2018-02-19T06:42:32.174Z,1015.59
2018-02-19T06:43:32.184Z,1015.61
2018-02-19T06:44:32.162Z,1015.64
2018-02-19T06:45:53.174Z,1015.66
2018-02-19T06:46:32.174Z,1015.65
2018-02-19T06:47:32.171Z,1015.66
2018-02-19T06:48:32.952Z,1015.67
2018-02-19T06:49:32.154Z,1015.69
2018-02-19T06:50:32.148Z,1015.71
2018-02-19T06:51:53.174Z,1015.72
2018-02-19T06:52:32.335Z,1015.72
2018-02-19T06:53:32.152Z,1015.73
2018-02-19T06:54:32.149Z,1015.76
2018-02-19T06:55:32.146Z,1015.72
2018-02-19T06:56:32.131Z,1015.71
2018-02-19T06:57:53.172Z,1015.75
2018-02-19T06:58:32.192Z,1015.78
2018-02-19T06:59:32.141Z,1015.74
2018-02-19T07:00:32.140Z,1015.74
2018-02-19T07:01:33.035Z,1015.75
2018-02-19T07:02:32.118Z,1015.76
2018-02-19T07:03:53.134Z,1015.74
2018-02-19T07:04:32.129Z,1015.70
2018-02-19T07:05:32.216Z,1015.66
2018-02-19T07:06:32.106Z,1015.68
2018-02-19T07:07:32.104Z,1015.64
2018-02-19T07:08:32.125Z,1015.67
2018-02-19T07:09:54.037Z,1015.66
2018-02-19T07:10:32.101Z,1015.67
2018-02-19T07:11:32.088Z,1015.68
2018-02-19T07:12:32.096Z,1015.71
2018-02-19T07:13:32.366Z,1015.65
2018-02-19T07:14:32.729Z,1015.63
2018-02-19T07:15:54.106Z,1015.65
2018-02-19T07:16:32.832Z,1015.61
2018-02-19T07:17:32.403Z,1015.65
2018-02-19T07:18:35.574Z,1015.66
2018-02-19T07:19:32.745Z,1015.66
2018-02-19T07:20:35.161Z,1015.61
2018-02-19T07:21:53.294Z,1015.58
2018-02-19T07:22:32.063Z,1015.54
2018-02-19T07:23:36.450Z,1015.53
2018-02-19T07:24:32.572Z,1015.54
2018-02-19T07:25:32.618Z,1015.55
2018-02-19T07:26:32.371Z,1015.52
2018-02-19T07:27:54.893Z,1015.55
2018-02-19T07:28:33.090Z,1015.51
2018-02-19T07:29:32.938Z,1015.50
2018-02-19T07:30:32.236Z,1015.48
2018-02-19T07:31:32.937Z,1015.47
2018-02-19T07:32:32.201Z,1015.49
2018-02-19T07:33:53.866Z,1015.49
2018-02-19T07:34:32.637Z,1015.52
2018-02-19T07:35:32.157Z,1015.53
2018-02-19T07:36:32.359Z,1015.52
2018-02-19T07:37:32.392Z,1015.51
2018-02-19T07:38:32.583Z,1015.54
2018-02-19T07:39:53.570Z,1015.56
2018-02-19T07:40:32.252Z,1015.60
2018-02-19T07:41:32.154Z,1015.61
2018-02-19T07:42:32.604Z,1015.65
2018-02-19T07:43:33.978Z,1015.71
2018-02-19T07:44:33.472Z,1015.73
2018-02-19T07:45:53.518Z,1015.72
2018-02-19T07:46:32.384Z,1015.78
2018-02-19T07:47:32.333Z,1015.80
2018-02-19T07:48:32.260Z,1015.83
2018-02-19T07:49:32.717Z,1015.83
2018-02-19T07:50:32.111Z,1015.83
2018-02-19T07:51:53.151Z,1015.83
2018-02-19T07:52:32.407Z,1015.84
2018-02-19T07:55:04.106Z,1015.85
2018-02-19T07:56:04.963Z,1015.85
2018-02-19T07:57:59.004Z,1015.84
2018-02-19T07:59:01.380Z,1015.84
2018-02-19T07:59:57.970Z,1015.86
2018-02-19T08:00:57.816Z,1015.86
2018-02-19T08:01:57.724Z,1015.87
2018-02-19T08:02:57.575Z,1015.88
2018-02-19T08:03:57.692Z,1015.89
2018-02-19T08:04:57.807Z,1015.89
2018-02-19T08:05:57.575Z,1015.90
2018-02-19T08:06:57.563Z,1015.95
2018-02-19T08:07:57.585Z,1015.94
2018-02-19T08:08:57.652Z,1015.94
2018-02-19T08:09:58.006Z,1015.93
2018-02-19T08:10:57.917Z,1015.92
2018-02-19T08:13:30.246Z,1015.91
2018-02-19T08:14:30.044Z,1015.91
2018-02-19T08:15:30.032Z,1015.90
2018-02-19T08:16:30.241Z,1015.91
2018-02-19T08:17:30.099Z,1015.91
2018-02-19T08:18:30.116Z,1015.91
2018-02-19T08:19:30.010Z,1015.91
2018-02-19T08:20:30.228Z,1015.89
2018-02-19T08:22:30.738Z,1015.89
2018-02-19T08:25:02.900Z,1015.87
2018-02-19T08:26:03.750Z,1015.87
2018-02-19T08:28:44.579Z,1015.83
2018-02-19T08:29:37.444Z,1015.82
2018-02-19T08:30:36.059Z,1015.85
2018-02-19T08:31:36.569Z,1015.91
2018-02-19T08:32:35.666Z,1015.98
2018-02-19T08:33:35.791Z,1015.95
2018-02-19T08:34:35.761Z,1015.97
2018-02-19T08:35:36.467Z,1015.96
2018-02-19T08:36:35.768Z,1016.09
2018-02-19T08:37:35.738Z,1015.93
2018-02-19T08:38:35.771Z,1015.93
2018-02-19T08:39:35.933Z,1015.99
2018-02-19T08:40:35.809Z,1015.92
2018-02-19T08:41:36.464Z,1015.94
2018-02-19T08:42:36.173Z,1015.93
2018-02-19T08:43:36.102Z,1015.93
2018-02-19T08:47:40.892Z,1015.87
2018-02-19T08:48:40.919Z,1015.88
2018-02-19T08:49:41.573Z,1015.86
2018-02-19T08:50:46.913Z,1015.85
2018-02-19T08:51:42.576Z,1015.83
2018-02-19T08:52:40.887Z,1015.82
2018-02-19T08:53:41.680Z,1015.81
2018-02-19T08:54:41.677Z,1015.86
2018-02-19T08:55:40.994Z,1015.82
2018-02-19T08:56:40.847Z,1015.88
2018-02-19T08:57:40.849Z,1015.80
2018-02-19T08:58:40.847Z,1015.83
2018-02-19T08:59:40.836Z,1015.90
2018-02-19T09:00:41.676Z,1016.00
2018-02-19T09:01:40.840Z,1015.96
2018-02-19T09:02:40.799Z,1016.00
2018-02-19T09:03:40.852Z,1015.89
2018-02-19T09:04:40.783Z,1015.90
2018-02-19T09:05:40.791Z,1015.89
2018-02-19T09:06:40.784Z,1015.80
2018-02-19T09:07:41.678Z,1015.79
2018-02-19T09:08:41.680Z,1015.83
2018-02-19T09:09:40.923Z,1015.86
2018-02-19T09:10:40.819Z,1015.90
2018-02-19T09:11:40.821Z,1015.86
2018-02-19T09:12:40.845Z,1015.86
2018-02-19T09:13:41.683Z,1015.82
2018-02-19T09:14:40.963Z,1015.81
2018-02-19T09:15:40.860Z,1015.78
2018-02-19T09:16:40.843Z,1015.74
2018-02-19T09:17:41.680Z,1015.72
2018-02-19T09:18:40.803Z,1015.72
2018-02-19T09:19:40.783Z,1015.70
2018-02-19T09:20:40.788Z,1015.67
2018-02-19T09:21:40.837Z,1015.71
2018-02-19T09:22:40.865Z,1015.68
2018-02-19T09:23:41.684Z,1015.70
2018-02-19T09:24:40.853Z,1015.72
2018-02-19T09:25:40.860Z,1015.70
2018-02-19T09:26:40.932Z,1015.74
2018-02-19T09:27:40.814Z,1015.76
2018-02-19T09:28:40.882Z,1015.75
2018-02-19T09:29:40.858Z,1015.77
2018-02-19T09:30:40.868Z,1015.73
2018-02-19T09:31:41.680Z,1015.66
2018-02-19T09:32:40.787Z,1015.65
2018-02-19T09:33:40.827Z,1015.77
2018-02-19T09:34:40.887Z,1015.98
2018-02-19T09:35:40.852Z,1016.17
2018-02-19T09:36:40.874Z,1016.28
2018-02-19T09:37:40.906Z,1016.32
2018-02-19T09:38:40.853Z,1016.42
2018-02-19T09:39:40.896Z,1016.50
2018-02-19T09:40:41.816Z,1016.59
2018-02-19T09:41:40.820Z,1016.63
2018-02-19T09:42:40.800Z,1016.53
2018-02-19T09:43:41.683Z,1016.47
2018-02-19T09:44:41.690Z,1016.15
2018-02-19T09:45:40.864Z,1016.34
2018-02-19T09:46:40.875Z,1016.23
2018-02-19T09:47:40.912Z,1016.03
2018-02-19T09:48:40.891Z,1015.89
2018-02-19T09:49:40.849Z,1015.88
2018-02-19T09:50:40.808Z,1016.08
2018-02-19T09:51:40.830Z,1016.26
2018-02-19T09:52:40.833Z,1016.65
2018-02-19T09:53:41.780Z,1016.62
2018-02-19T09:54:40.831Z,1016.35
2018-02-19T09:55:40.875Z,1016.16
2018-02-19T09:56:40.909Z,1016.34
2018-02-19T09:57:40.926Z,1016.09
2018-02-19T09:58:40.860Z,1016.04
2018-02-19T09:59:40.905Z,1016.11
2018-02-19T10:00:40.882Z,1016.06
2018-02-19T10:01:47.856Z,1015.92
2018-02-19T10:02:41.069Z,1016.04
2018-02-19T10:03:40.896Z,1016.30
2018-02-19T10:04:41.039Z,1016.16
2018-02-19T10:05:41.158Z,1016.10
2018-02-19T10:06:40.859Z,1016.05
2018-02-19T10:07:40.900Z,1016.06
2018-02-19T10:08:40.897Z,1016.03
2018-02-19T10:09:40.899Z,1016.02
2018-02-19T10:10:41.695Z,1015.88
2018-02-19T10:11:40.925Z,1015.83
2018-02-19T10:12:40.865Z,1015.82
2018-02-19T10:13:40.962Z,1015.86
2018-02-19T10:14:40.968Z,1015.86
2018-02-19T10:15:40.887Z,1015.93
2018-02-19T10:16:40.960Z,1015.93
2018-02-19T10:17:40.990Z,1015.96
2018-02-19T10:18:41.021Z,1015.91
2018-02-19T10:19:40.980Z,1015.92
2018-02-19T10:20:40.997Z,1015.91
2018-02-19T10:21:41.049Z,1015.86
2018-02-19T10:22:40.918Z,1015.83
2018-02-19T10:23:41.016Z,1015.79
2018-02-19T10:24:41.048Z,1015.80
2018-02-19T10:25:40.935Z,1015.78
2018-02-19T10:26:41.000Z,1015.85
2018-02-19T10:27:40.975Z,1015.85
2018-02-19T10:28:40.988Z,1015.83
2018-02-19T10:29:41.005Z,1015.89
2018-02-19T10:30:40.983Z,1015.88
2018-02-19T10:31:41.103Z,1015.89
2018-02-19T10:32:41.102Z,1015.84
2018-02-19T10:33:41.098Z,1015.90
2018-02-19T10:34:41.007Z,1015.84
2018-02-19T10:35:41.008Z,1015.82
2018-02-19T10:36:40.974Z,1015.85
2018-02-19T10:37:40.998Z,1015.89
2018-02-19T10:38:40.990Z,1015.90
2018-02-19T10:39:40.982Z,1015.92
2018-02-19T10:40:40.951Z,1016.05
2018-02-19T10:41:41.709Z,1015.80
2018-02-19T10:42:40.953Z,1015.79
2018-02-19T10:43:41.038Z,1015.87
2018-02-19T10:44:41.050Z,1015.72
2018-02-19T10:45:40.990Z,1015.73
2018-02-19T10:46:40.984Z,1015.74
2018-02-19T10:47:40.997Z,1015.83
2018-02-19T10:48:41.009Z,1015.83
2018-02-19T10:49:41.055Z,1015.77
2018-02-19T10:50:41.028Z,1015.69
2018-02-19T10:51:41.015Z,1015.74
2018-02-19T10:52:41.032Z,1015.75
2018-02-19T10:53:41.025Z,1015.76
2018-02-19T10:54:41.030Z,1015.68
2018-02-19T10:55:41.037Z,1015.67
2018-02-19T10:56:41.042Z,1015.58
2018-02-19T10:57:41.035Z,1015.59
2018-02-19T10:58:41.016Z,1015.63
2018-02-19T10:59:41.018Z,1015.50
2018-02-19T11:00:41.075Z,1015.55
2018-02-19T11:01:41.025Z,1015.50
2018-02-19T11:02:41.038Z,1015.51
2018-02-19T11:03:41.090Z,1015.54
2018-02-19T11:04:41.015Z,1015.55
2018-02-19T11:05:41.017Z,1015.51
2018-02-19T11:06:41.172Z,1015.47
2018-02-19T11:07:41.048Z,1015.40
2018-02-19T11:08:41.037Z,1015.47
2018-02-19T11:09:41.046Z,1015.45
2018-02-19T11:10:41.056Z,1015.46
2018-02-19T11:11:41.060Z,1015.43
2018-02-19T11:12:41.113Z,1015.41
2018-02-19T11:13:41.030Z,1015.40
2018-02-19T11:14:41.079Z,1015.37
2018-02-19T11:15:41.202Z,1015.33
2018-02-19T11:16:41.049Z,1015.32
2018-02-19T11:17:41.091Z,1015.35
2018-02-19T11:18:41.050Z,1015.39
2018-02-19T11:19:41.723Z,1015.48
2018-02-19T11:20:41.036Z,1015.48
2018-02-19T11:21:41.032Z,1015.44
2018-02-19T11:22:41.062Z,1015.41
2018-02-19T11:23:41.076Z,1015.38
2018-02-19T11:24:41.106Z,1015.38
2018-02-19T11:25:41.190Z,1015.35
2018-02-19T11:26:41.256Z,1015.34
2018-02-19T11:27:41.139Z,1015.29
2018-02-19T11:28:41.167Z,1015.27
2018-02-19T11:29:41.122Z,1015.27
2018-02-19T11:30:41.097Z,1015.30
2018-02-19T11:31:41.102Z,1015.27
2018-02-19T11:32:41.059Z,1015.22
2018-02-19T11:33:41.123Z,1015.20
2018-02-19T11:34:41.146Z,1015.14
2018-02-19T11:35:41.070Z,1015.14
2018-02-19T11:36:41.062Z,1015.14
2018-02-19T11:37:41.727Z,1015.13
2018-02-19T11:38:41.162Z,1015.07
2018-02-19T11:39:41.069Z,1015.08
2018-02-19T11:40:41.134Z,1015.12
2018-02-19T11:41:41.084Z,1015.09
2018-02-19T11:42:41.160Z,1015.14
2018-02-19T11:43:41.207Z,1015.19
2018-02-19T11:44:41.134Z,1015.18
2018-02-19T11:45:41.129Z,1015.16
2018-02-19T11:46:41.141Z,1015.07
2018-02-19T11:47:41.113Z,1015.06
2018-02-19T11:48:41.132Z,1015.06
2018-02-19T11:49:41.120Z,1015.07
2018-02-19T11:50:41.133Z,1015.06
2018-02-19T11:51:41.134Z,1015.00
2018-02-19T11:52:41.143Z,1014.96
2018-02-19T11:53:41.949Z,1015.00
2018-02-19T11:54:41.157Z,1015.01
2018-02-19T11:55:41.171Z,1015.05
2018-02-19T11:56:41.731Z,1015.03
2018-02-19T11:57:41.166Z,1015.04
2018-02-19T11:58:41.902Z,1015.09
2018-02-19T11:59:41.175Z,1015.00
2018-02-19T12:00:41.197Z,1015.00
2018-02-19T12:01:41.158Z,1015.00
2018-02-19T12:02:41.196Z,1014.97
2018-02-19T12:03:41.142Z,1014.89
2018-02-19T12:04:41.174Z,1014.89
2018-02-19T12:05:41.170Z,1014.83
2018-02-19T12:06:41.161Z,1014.78
2018-02-19T12:07:41.178Z,1014.77
2018-02-19T12:08:41.197Z,1014.74
2018-02-19T12:09:41.174Z,1014.74
2018-02-19T12:10:41.121Z,1014.68
2018-02-19T12:11:41.187Z,1014.61
2018-02-19T12:12:41.178Z,1014.59
2018-02-19T12:13:41.220Z,1014.62
2018-02-19T12:14:41.147Z,1014.66
2018-02-19T12:15:41.189Z,1014.69
2018-02-19T12:16:41.135Z,1014.68